METAR AND TAF INFORMATION
METAR FOR LYTV
ADDS - METARS form results

(0348 UTC 30 January 2023)
Data provider http://aviationweather.gov/metar/data/
 
METAR text: LYTV 300330Z AUTO 32001KT CAVOK M01/M03 Q1019
Conditions at: LYTV (TIVAT , ME) observed 0330 UTC 30 January 2023
Temperature: -1.0°C (30°F)
Dewpoint: -3.0°C (27°F) [RH = 86%]
Pressure (altimeter): 30.09 inches Hg (1019.0 mb)
Winds: from the NW (320 degrees) at 1 MPH (1 knots; 0.5 m/s)
Visibility: 6 or more miles (10+ km)
Ceiling: ceiling and visibility are OK
Clouds: unknown
Weather: no significant weather observed at this time

METAR text: LYTV 300300Z AUTO VRB01KT CAVOK M01/M03 Q1019
Conditions at: LYTV (TIVAT , ME) observed 0300 UTC 30 January 2023
Temperature: -1.0°C (30°F)
Dewpoint: -3.0°C (27°F) [RH = 86%]
Pressure (altimeter): 30.09 inches Hg (1019.0 mb)
Winds: variable direction winds at 1 MPH (1 knots; 0.5 m/s)
Visibility: 6 or more miles (10+ km)
Ceiling: ceiling and visibility are OK
Clouds: unknown
Weather: no significant weather observed at this time

Forecast for: LYTV (TIVAT , ME)
Text: TAF LYTV 292300Z 3000/3024 36006KT CAVOK TX12/3013Z TN01/3006Z
Forecast period: 0000 UTC 30 January 2023 to 0000 UTC 31 January 2023
Forecast type: FROM: standard forecast or significant change
Winds: from the N (360 degrees) at 7 MPH (6 knots; 3.1 m/s)
Visibility: 6 or more miles (10+ km)
Ceiling: unknown
Clouds: missing
Weather: no significant weather forecast for this period

 AIRPORT MAP

 RUNWAY INFORMATION
Runway 14 Runway length 8208 ft Runway width 148 ft
Runway elevation 7 ft Runway displaced threshold 0 ft Runway heading 139
Runway 32 Runway length 8208 ft Runway width 148 ft
Runway elevation 16 ft Runway displaced threshold 0 ft Runway heading 319

 AIRPORT FREQUENCIES
Type ARR Name APP Frequency 118 MHZ
Type TWR Name TWR Frequency 118 MHZ

 AIRPORT NEAR NAVIGATION AIDS
Type NDB Name Tivat Frequency 345 KHZ



Powered by Virtual Airlines Manager [v2.6.2]



This site has no connection with the actual Aegean Airlines®.
The site was designed exclusively for use in conjunction with Microsoft Flight Simulator™, Prepar3D™ and X-plane™.
Any References to Microsoft, Aegean, Airbus, Boeing, etc. are legally owned by the manufacturers and their owners.
Our views and activities are quite different from those of the real Aegean Airlines®. Everything is virtual. Resources and information cannot be used on real flights but only for virtual ones.

Everything was created for entertainment only